sensor_id;sensor_type;location;lat;lon;timestamp;P1;durP1;ratioP1;P2;durP2;ratioP2
19951;SDS011;10137;49.406;19.484;2023-04-05T00:01:12;18.77;;;8.47;;
19951;SDS011;10137;49.406;19.484;2023-04-05T00:03:41;22.50;;;9.67;;
19951;SDS011;10137;49.406;19.484;2023-04-05T00:06:09;19.43;;;8.97;;
19951;SDS011;10137;49.406;19.484;2023-04-05T00:08:43;23.03;;;9.70;;
19951;SDS011;10137;49.406;19.484;2023-04-05T00:11:15;13.17;;;6.97;;
19951;SDS011;10137;49.406;19.484;2023-04-05T00:13:44;12.93;;;6.70;;
19951;SDS011;10137;49.406;19.484;2023-04-05T00:16:13;9.30;;;6.27;;
19951;SDS011;10137;49.406;19.484;2023-04-05T00:18:41;12.30;;;6.57;;
19951;SDS011;10137;49.406;19.484;2023-04-05T00:21:14;9.30;;;6.00;;
19951;SDS011;10137;49.406;19.484;2023-04-05T00:23:44;10.63;;;6.40;;
19951;SDS011;10137;49.406;19.484;2023-04-05T00:26:12;18.70;;;7.50;;
19951;SDS011;10137;49.406;19.484;2023-04-05T00:28:40;14.77;;;7.57;;
19951;SDS011;10137;49.406;19.484;2023-04-05T00:31:08;15.17;;;7.30;;
19951;SDS011;10137;49.406;19.484;2023-04-05T00:33:37;14.10;;;6.80;;
19951;SDS011;10137;49.406;19.484;2023-04-05T00:36:10;14.50;;;7.70;;
19951;SDS011;10137;49.406;19.484;2023-04-05T00:38:39;13.80;;;8.43;;
19951;SDS011;10137;49.406;19.484;2023-04-05T00:41:10;12.53;;;7.40;;
19951;SDS011;10137;49.406;19.484;2023-04-05T00:43:42;18.43;;;8.60;;
19951;SDS011;10137;49.406;19.484;2023-04-05T00:46:11;16.57;;;9.50;;
19951;SDS011;10137;49.406;19.484;2023-04-05T00:48:39;15.53;;;7.70;;
19951;SDS011;10137;49.406;19.484;2023-04-05T00:51:08;14.77;;;8.70;;
19951;SDS011;10137;49.406;19.484;2023-04-05T00:53:37;15.57;;;8.23;;
19951;SDS011;10137;49.406;19.484;2023-04-05T00:56:09;14.50;;;8.03;;
19951;SDS011;10137;49.406;19.484;2023-04-05T00:58:39;16.53;;;7.97;;
19951;SDS011;10137;49.406;19.484;2023-04-05T01:01:09;15.60;;;8.20;;
19951;SDS011;10137;49.406;19.484;2023-04-05T01:03:44;22.60;;;8.80;;
19951;SDS011;10137;49.406;19.484;2023-04-05T01:06:27;16.43;;;8.97;;
19951;SDS011;10137;49.406;19.484;2023-04-05T01:09:04;20.73;;;9.87;;
19951;SDS011;10137;49.406;19.484;2023-04-05T01:11:39;20.00;;;9.43;;
19951;SDS011;10137;49.406;19.484;2023-04-05T01:14:11;16.27;;;8.73;;
19951;SDS011;10137;49.406;19.484;2023-04-05T01:16:41;20.17;;;8.93;;
19951;SDS011;10137;49.406;19.484;2023-04-05T01:19:10;14.60;;;8.13;;
19951;SDS011;10137;49.406;19.484;2023-04-05T01:21:47;15.77;;;7.67;;
19951;SDS011;10137;49.406;19.484;2023-04-05T01:24:47;14.47;;;7.53;;
19951;SDS011;10137;49.406;19.484;2023-04-05T01:27:36;14.37;;;7.33;;
19951;SDS011;10137;49.406;19.484;2023-04-05T01:30:25;14.07;;;7.50;;
19951;SDS011;10137;49.406;19.484;2023-04-05T01:33:00;14.90;;;7.63;;
19951;SDS011;10137;49.406;19.484;2023-04-05T01:35:38;13.60;;;7.50;;
19951;SDS011;10137;49.406;19.484;2023-04-05T01:38:16;15.47;;;8.47;;
19951;SDS011;10137;49.406;19.484;2023-04-05T01:40:47;28.87;;;14.00;;
19951;SDS011;10137;49.406;19.484;2023-04-05T01:43:17;47.47;;;21.87;;
19951;SDS011;10137;49.406;19.484;2023-04-05T01:45:47;51.87;;;24.13;;
19951;SDS011;10137;49.406;19.484;2023-04-05T01:48:16;24.93;;;13.30;;
19951;SDS011;10137;49.406;19.484;2023-04-05T01:50:44;18.07;;;11.00;;
19951;SDS011;10137;49.406;19.484;2023-04-05T01:53:12;14.30;;;8.93;;
19951;SDS011;10137;49.406;19.484;2023-04-05T01:55:41;11.80;;;7.33;;
19951;SDS011;10137;49.406;19.484;2023-04-05T01:58:09;14.13;;;7.63;;
19951;SDS011;10137;49.406;19.484;2023-04-05T02:00:37;13.27;;;7.37;;
19951;SDS011;10137;49.406;19.484;2023-04-05T02:03:07;11.83;;;7.00;;
19951;SDS011;10137;49.406;19.484;2023-04-05T02:05:35;12.83;;;7.63;;
19951;SDS011;10137;49.406;19.484;2023-04-05T02:08:03;17.27;;;8.87;;
19951;SDS011;10137;49.406;19.484;2023-04-05T02:10:32;19.10;;;9.97;;
19951;SDS011;10137;49.406;19.484;2023-04-05T02:13:00;15.57;;;10.03;;
19951;SDS011;10137;49.406;19.484;2023-04-05T02:15:28;14.60;;;7.70;;
19951;SDS011;10137;49.406;19.484;2023-04-05T02:17:59;14.13;;;7.70;;
19951;SDS011;10137;49.406;19.484;2023-04-05T02:20:32;13.07;;;7.67;;
19951;SDS011;10137;49.406;19.484;2023-04-05T02:23:00;14.50;;;7.77;;
19951;SDS011;10137;49.406;19.484;2023-04-05T02:25:29;17.63;;;7.53;;
19951;SDS011;10137;49.406;19.484;2023-04-05T02:27:57;16.37;;;7.70;;
19951;SDS011;10137;49.406;19.484;2023-04-05T02:30:26;14.53;;;7.77;;
19951;SDS011;10137;49.406;19.484;2023-04-05T02:32:55;16.63;;;7.97;;
19951;SDS011;10137;49.406;19.484;2023-04-05T02:35:24;15.23;;;7.07;;
19951;SDS011;10137;49.406;19.484;2023-04-05T02:37:53;18.30;;;8.30;;
19951;SDS011;10137;49.406;19.484;2023-04-05T02:40:22;17.73;;;8.10;;
19951;SDS011;10137;49.406;19.484;2023-04-05T02:42:51;21.10;;;8.60;;
19951;SDS011;10137;49.406;19.484;2023-04-05T02:45:20;20.20;;;9.30;;
19951;SDS011;10137;49.406;19.484;2023-04-05T02:47:49;25.67;;;14.67;;
19951;SDS011;10137;49.406;19.484;2023-04-05T02:50:17;18.63;;;12.17;;
19951;SDS011;10137;49.406;19.484;2023-04-05T02:52:46;28.60;;;19.57;;
19951;SDS011;10137;49.406;19.484;2023-04-05T02:55:15;26.03;;;18.53;;
19951;SDS011;10137;49.406;19.484;2023-04-05T02:57:44;39.90;;;27.37;;
19951;SDS011;10137;49.406;19.484;2023-04-05T03:00:13;21.67;;;11.97;;
19951;SDS011;10137;49.406;19.484;2023-04-05T03:02:41;26.40;;;14.70;;
19951;SDS011;10137;49.406;19.484;2023-04-05T03:05:13;20.37;;;11.37;;
19951;SDS011;10137;49.406;19.484;2023-04-05T03:07:44;18.77;;;10.63;;
19951;SDS011;10137;49.406;19.484;2023-04-05T03:10:17;20.80;;;11.53;;
19951;SDS011;10137;49.406;19.484;2023-04-05T03:12:51;19.00;;;9.93;;
19951;SDS011;10137;49.406;19.484;2023-04-05T03:15:19;19.60;;;9.43;;
19951;SDS011;10137;49.406;19.484;2023-04-05T03:17:48;20.20;;;10.27;;
19951;SDS011;10137;49.406;19.484;2023-04-05T03:20:16;17.27;;;9.90;;
19951;SDS011;10137;49.406;19.484;2023-04-05T03:22:44;14.93;;;8.57;;
19951;SDS011;10137;49.406;19.484;2023-04-05T03:25:13;19.27;;;9.60;;
19951;SDS011;10137;49.406;19.484;2023-04-05T03:27:46;16.13;;;8.70;;
19951;SDS011;10137;49.406;19.484;2023-04-05T03:30:14;19.23;;;9.53;;
19951;SDS011;10137;49.406;19.484;2023-04-05T03:32:43;20.00;;;9.10;;
19951;SDS011;10137;49.406;19.484;2023-04-05T03:35:12;19.40;;;9.30;;
19951;SDS011;10137;49.406;19.484;2023-04-05T03:37:42;24.60;;;9.57;;
19951;SDS011;10137;49.406;19.484;2023-04-05T03:40:10;30.07;;;10.00;;
19951;SDS011;10137;49.406;19.484;2023-04-05T03:42:43;28.17;;;10.37;;
19951;SDS011;10137;49.406;19.484;2023-04-05T03:45:13;41.17;;;14.00;;
19951;SDS011;10137;49.406;19.484;2023-04-05T03:47:44;30.23;;;13.90;;
19951;SDS011;10137;49.406;19.484;2023-04-05T03:50:12;20.80;;;11.33;;
19951;SDS011;10137;49.406;19.484;2023-04-05T03:52:41;18.23;;;9.57;;
19951;SDS011;10137;49.406;19.484;2023-04-05T03:55:12;16.23;;;8.50;;
19951;SDS011;10137;49.406;19.484;2023-04-05T03:57:42;18.13;;;9.43;;
19951;SDS011;10137;49.406;19.484;2023-04-05T04:00:21;18.00;;;9.97;;
19951;SDS011;10137;49.406;19.484;2023-04-05T04:02:51;29.83;;;10.80;;
19951;SDS011;10137;49.406;19.484;2023-04-05T04:05:20;21.60;;;10.33;;
19951;SDS011;10137;49.406;19.484;2023-04-05T04:07:48;26.23;;;12.47;;
19951;SDS011;10137;49.406;19.484;2023-04-05T04:10:16;26.20;;;11.33;;
19951;SDS011;10137;49.406;19.484;2023-04-05T04:12:45;24.77;;;11.50;;
19951;SDS011;10137;49.406;19.484;2023-04-05T04:15:14;24.93;;;11.90;;
19951;SDS011;10137;49.406;19.484;2023-04-05T04:17:44;25.77;;;13.83;;
19951;SDS011;10137;49.406;19.484;2023-04-05T04:20:12;36.47;;;20.03;;
19951;SDS011;10137;49.406;19.484;2023-04-05T04:22:39;69.90;;;31.97;;
19951;SDS011;10137;49.406;19.484;2023-04-05T04:25:11;97.80;;;49.87;;
19951;SDS011;10137;49.406;19.484;2023-04-05T04:27:43;123.47;;;58.77;;
19951;SDS011;10137;49.406;19.484;2023-04-05T04:30:26;82.70;;;38.83;;
19951;SDS011;10137;49.406;19.484;2023-04-05T04:32:58;48.53;;;25.13;;
19951;SDS011;10137;49.406;19.484;2023-04-05T04:35:30;33.27;;;18.17;;
19951;SDS011;10137;49.406;19.484;2023-04-05T04:38:04;30.83;;;15.00;;
19951;SDS011;10137;49.406;19.484;2023-04-05T04:40:34;27.87;;;14.50;;
19951;SDS011;10137;49.406;19.484;2023-04-05T04:43:08;29.37;;;13.43;;
19951;SDS011;10137;49.406;19.484;2023-04-05T04:45:40;42.57;;;17.47;;
19951;SDS011;10137;49.406;19.484;2023-04-05T04:48:13;38.20;;;18.40;;
19951;SDS011;10137;49.406;19.484;2023-04-05T04:50:47;46.50;;;20.03;;
19951;SDS011;10137;49.406;19.484;2023-04-05T04:53:15;57.10;;;25.67;;
19951;SDS011;10137;49.406;19.484;2023-04-05T04:55:44;64.23;;;24.87;;
19951;SDS011;10137;49.406;19.484;2023-04-05T04:58:14;82.90;;;31.67;;
19951;SDS011;10137;49.406;19.484;2023-04-05T05:00:43;64.73;;;29.27;;
19951;SDS011;10137;49.406;19.484;2023-04-05T05:03:13;57.57;;;26.17;;
19951;SDS011;10137;49.406;19.484;2023-04-05T05:05:41;56.10;;;24.27;;
19951;SDS011;10137;49.406;19.484;2023-04-05T05:08:18;47.37;;;20.97;;
19951;SDS011;10137;49.406;19.484;2023-04-05T05:10:49;97.33;;;37.90;;
19951;SDS011;10137;49.406;19.484;2023-04-05T05:13:18;100.33;;;38.07;;
19951;SDS011;10137;49.406;19.484;2023-04-05T05:15:47;93.83;;;33.43;;
19951;SDS011;10137;49.406;19.484;2023-04-05T05:18:16;94.67;;;31.10;;
19951;SDS011;10137;49.406;19.484;2023-04-05T05:20:44;73.13;;;27.03;;
19951;SDS011;10137;49.406;19.484;2023-04-05T05:23:15;45.33;;;18.03;;
19951;SDS011;10137;49.406;19.484;2023-04-05T05:25:46;86.93;;;25.33;;
19951;SDS011;10137;49.406;19.484;2023-04-05T05:28:14;59.03;;;19.00;;
19951;SDS011;10137;49.406;19.484;2023-04-05T05:30:42;35.57;;;13.73;;
19951;SDS011;10137;49.406;19.484;2023-04-05T05:33:11;29.70;;;10.17;;
19951;SDS011;10137;49.406;19.484;2023-04-05T05:35:41;24.73;;;10.33;;
19951;SDS011;10137;49.406;19.484;2023-04-05T05:38:09;19.07;;;7.13;;
19951;SDS011;10137;49.406;19.484;2023-04-05T05:40:37;17.17;;;7.13;;
19951;SDS011;10137;49.406;19.484;2023-04-05T05:43:06;11.63;;;6.13;;
19951;SDS011;10137;49.406;19.484;2023-04-05T05:45:35;16.63;;;6.90;;
19951;SDS011;10137;49.406;19.484;2023-04-05T05:48:04;15.27;;;7.60;;
19951;SDS011;10137;49.406;19.484;2023-04-05T05:50:32;10.33;;;6.20;;
19951;SDS011;10137;49.406;19.484;2023-04-05T05:53:02;16.77;;;6.97;;
19951;SDS011;10137;49.406;19.484;2023-04-05T05:55:30;16.50;;;7.93;;
19951;SDS011;10137;49.406;19.484;2023-04-05T05:57:59;15.90;;;6.90;;
19951;SDS011;10137;49.406;19.484;2023-04-05T06:00:26;15.93;;;7.70;;
19951;SDS011;10137;49.406;19.484;2023-04-05T06:02:54;9.97;;;6.10;;
19951;SDS011;10137;49.406;19.484;2023-04-05T06:05:24;11.23;;;5.97;;
19951;SDS011;10137;49.406;19.484;2023-04-05T06:07:52;8.97;;;5.43;;
19951;SDS011;10137;49.406;19.484;2023-04-05T06:10:23;19.23;;;6.27;;
19951;SDS011;10137;49.406;19.484;2023-04-05T06:12:51;18.17;;;7.87;;
19951;SDS011;10137;49.406;19.484;2023-04-05T06:15:20;12.90;;;5.40;;
19951;SDS011;10137;49.406;19.484;2023-04-05T06:17:48;12.33;;;6.60;;
19951;SDS011;10137;49.406;19.484;2023-04-05T06:20:16;12.57;;;5.37;;
19951;SDS011;10137;49.406;19.484;2023-04-05T06:22:44;10.83;;;5.60;;
19951;SDS011;10137;49.406;19.484;2023-04-05T06:25:13;10.83;;;6.50;;
19951;SDS011;10137;49.406;19.484;2023-04-05T06:27:43;18.03;;;6.60;;
19951;SDS011;10137;49.406;19.484;2023-04-05T06:30:11;11.93;;;5.63;;
19951;SDS011;10137;49.406;19.484;2023-04-05T06:32:40;11.33;;;5.90;;
19951;SDS011;10137;49.406;19.484;2023-04-05T06:35:08;11.77;;;5.40;;
19951;SDS011;10137;49.406;19.484;2023-04-05T06:37:36;10.80;;;6.17;;
19951;SDS011;10137;49.406;19.484;2023-04-05T06:40:05;8.93;;;5.23;;
19951;SDS011;10137;49.406;19.484;2023-04-05T06:42:34;14.87;;;5.30;;
19951;SDS011;10137;49.406;19.484;2023-04-05T06:45:04;8.50;;;4.60;;
19951;SDS011;10137;49.406;19.484;2023-04-05T06:47:33;14.43;;;5.07;;
19951;SDS011;10137;49.406;19.484;2023-04-05T06:50:01;10.73;;;3.77;;
19951;SDS011;10137;49.406;19.484;2023-04-05T06:52:29;11.17;;;4.10;;
19951;SDS011;10137;49.406;19.484;2023-04-05T06:54:59;9.30;;;7.20;;
19951;SDS011;10137;49.406;19.484;2023-04-05T06:57:27;10.93;;;4.23;;
19951;SDS011;10137;49.406;19.484;2023-04-05T06:59:56;14.40;;;4.93;;
19951;SDS011;10137;49.406;19.484;2023-04-05T07:02:26;8.07;;;4.80;;
19951;SDS011;10137;49.406;19.484;2023-04-05T07:04:54;7.30;;;4.27;;
19951;SDS011;10137;49.406;19.484;2023-04-05T07:07:30;13.07;;;5.47;;
19951;SDS011;10137;49.406;19.484;2023-04-05T07:09:58;12.40;;;4.63;;
19951;SDS011;10137;49.406;19.484;2023-04-05T07:12:26;9.40;;;5.03;;
19951;SDS011;10137;49.406;19.484;2023-04-05T07:14:55;13.23;;;6.27;;
19951;SDS011;10137;49.406;19.484;2023-04-05T07:17:23;18.80;;;4.90;;
19951;SDS011;10137;49.406;19.484;2023-04-05T07:19:57;11.03;;;4.63;;
19951;SDS011;10137;49.406;19.484;2023-04-05T07:22:25;7.13;;;4.07;;
19951;SDS011;10137;49.406;19.484;2023-04-05T07:24:54;9.67;;;4.33;;
19951;SDS011;10137;49.406;19.484;2023-04-05T07:27:22;13.33;;;3.60;;
19951;SDS011;10137;49.406;19.484;2023-04-05T07:29:51;9.10;;;3.67;;
19951;SDS011;10137;49.406;19.484;2023-04-05T07:32:19;8.20;;;3.47;;
19951;SDS011;10137;49.406;19.484;2023-04-05T07:34:47;9.73;;;3.60;;
19951;SDS011;10137;49.406;19.484;2023-04-05T07:37:17;12.10;;;3.80;;
19951;SDS011;10137;49.406;19.484;2023-04-05T07:39:44;7.13;;;3.33;;
19951;SDS011;10137;49.406;19.484;2023-04-05T07:42:13;7.50;;;3.93;;
19951;SDS011;10137;49.406;19.484;2023-04-05T07:44:43;8.27;;;3.10;;
19951;SDS011;10137;49.406;19.484;2023-04-05T07:47:11;18.40;;;4.23;;
19951;SDS011;10137;49.406;19.484;2023-04-05T07:49:39;8.30;;;3.73;;
19951;SDS011;10137;49.406;19.484;2023-04-05T07:52:08;6.53;;;3.70;;
19951;SDS011;10137;49.406;19.484;2023-04-05T07:54:37;15.67;;;7.60;;
19951;SDS011;10137;49.406;19.484;2023-04-05T07:57:08;5.57;;;3.57;;
19951;SDS011;10137;49.406;19.484;2023-04-05T07:59:36;6.50;;;3.20;;
19951;SDS011;10137;49.406;19.484;2023-04-05T08:02:05;7.83;;;3.77;;
19951;SDS011;10137;49.406;19.484;2023-04-05T08:04:32;6.40;;;3.53;;
19951;SDS011;10137;49.406;19.484;2023-04-05T08:07:00;9.87;;;2.90;;
19951;SDS011;10137;49.406;19.484;2023-04-05T08:09:30;5.77;;;3.00;;
19951;SDS011;10137;49.406;19.484;2023-04-05T08:11:59;7.10;;;3.00;;
19951;SDS011;10137;49.406;19.484;2023-04-05T08:14:28;7.07;;;3.30;;
19951;SDS011;10137;49.406;19.484;2023-04-05T08:16:58;5.67;;;3.03;;
19951;SDS011;10137;49.406;19.484;2023-04-05T08:19:27;9.67;;;3.00;;
19951;SDS011;10137;49.406;19.484;2023-04-05T08:21:53;19.27;;;3.60;;
19951;SDS011;10137;49.406;19.484;2023-04-05T08:24:22;5.03;;;2.93;;
19951;SDS011;10137;49.406;19.484;2023-04-05T08:26:50;15.40;;;4.73;;
19951;SDS011;10137;49.406;19.484;2023-04-05T08:29:20;5.07;;;2.50;;
19951;SDS011;10137;49.406;19.484;2023-04-05T08:31:48;5.40;;;3.10;;
19951;SDS011;10137;49.406;19.484;2023-04-05T08:34:16;6.37;;;3.00;;
19951;SDS011;10137;49.406;19.484;2023-04-05T08:36:45;5.43;;;2.90;;
19951;SDS011;10137;49.406;19.484;2023-04-05T08:39:14;4.50;;;2.70;;
19951;SDS011;10137;49.406;19.484;2023-04-05T08:41:45;5.73;;;2.80;;
19951;SDS011;10137;49.406;19.484;2023-04-05T08:44:23;7.87;;;2.80;;
19951;SDS011;10137;49.406;19.484;2023-04-05T08:46:55;5.60;;;2.93;;
19951;SDS011;10137;49.406;19.484;2023-04-05T08:49:24;4.30;;;2.93;;
19951;SDS011;10137;49.406;19.484;2023-04-05T08:51:53;4.67;;;2.73;;
19951;SDS011;10137;49.406;19.484;2023-04-05T08:54:22;9.00;;;3.13;;
19951;SDS011;10137;49.406;19.484;2023-04-05T08:56:51;5.03;;;2.57;;
19951;SDS011;10137;49.406;19.484;2023-04-05T08:59:21;8.33;;;2.90;;
19951;SDS011;10137;49.406;19.484;2023-04-05T09:01:51;6.87;;;3.20;;
19951;SDS011;10137;49.406;19.484;2023-04-05T09:04:21;6.77;;;3.37;;
19951;SDS011;10137;49.406;19.484;2023-04-05T09:06:51;6.53;;;2.83;;
19951;SDS011;10137;49.406;19.484;2023-04-05T09:09:24;9.17;;;4.03;;
19951;SDS011;10137;49.406;19.484;2023-04-05T09:11:54;8.37;;;3.43;;
19951;SDS011;10137;49.406;19.484;2023-04-05T09:14:23;9.70;;;4.00;;
19951;SDS011;10137;49.406;19.484;2023-04-05T09:16:55;6.83;;;3.50;;
19951;SDS011;10137;49.406;19.484;2023-04-05T09:19:23;5.33;;;2.60;;
19951;SDS011;10137;49.406;19.484;2023-04-05T09:21:59;9.27;;;2.83;;
19951;SDS011;10137;49.406;19.484;2023-04-05T09:24:33;9.53;;;3.43;;
19951;SDS011;10137;49.406;19.484;2023-04-05T09:27:07;5.90;;;3.17;;
19951;SDS011;10137;49.406;19.484;2023-04-05T09:29:36;13.27;;;3.83;;
19951;SDS011;10137;49.406;19.484;2023-04-05T09:32:07;8.60;;;4.33;;
19951;SDS011;10137;49.406;19.484;2023-04-05T09:34:36;15.97;;;7.97;;
19951;SDS011;10137;49.406;19.484;2023-04-05T09:37:11;15.97;;;9.10;;
19951;SDS011;10137;49.406;19.484;2023-04-05T09:39:40;12.73;;;8.33;;
19951;SDS011;10137;49.406;19.484;2023-04-05T09:42:10;16.33;;;9.33;;
19951;SDS011;10137;49.406;19.484;2023-04-05T09:44:53;12.80;;;7.63;;
19951;SDS011;10137;49.406;19.484;2023-04-05T09:47:25;15.67;;;6.20;;
19951;SDS011;10137;49.406;19.484;2023-04-05T09:49:57;7.73;;;4.23;;
19951;SDS011;10137;49.406;19.484;2023-04-05T09:52:26;11.67;;;3.80;;
19951;SDS011;10137;49.406;19.484;2023-04-05T09:54:57;7.63;;;2.83;;
19951;SDS011;10137;49.406;19.484;2023-04-05T09:57:32;7.57;;;3.07;;
19951;SDS011;10137;49.406;19.484;2023-04-05T10:00:01;8.40;;;3.20;;
19951;SDS011;10137;49.406;19.484;2023-04-05T10:02:37;5.03;;;3.33;;
19951;SDS011;10137;49.406;19.484;2023-04-05T10:05:06;8.53;;;3.90;;
19951;SDS011;10137;49.406;19.484;2023-04-05T10:07:36;7.20;;;2.93;;
19951;SDS011;10137;49.406;19.484;2023-04-05T10:10:07;7.23;;;3.50;;
19951;SDS011;10137;49.406;19.484;2023-04-05T10:12:37;8.43;;;3.80;;
19951;SDS011;10137;49.406;19.484;2023-04-05T10:15:07;6.23;;;3.60;;
19951;SDS011;10137;49.406;19.484;2023-04-05T10:17:50;7.90;;;3.23;;
19951;SDS011;10137;49.406;19.484;2023-04-05T10:20:21;8.10;;;3.40;;
19951;SDS011;10137;49.406;19.484;2023-04-05T10:22:54;14.90;;;3.50;;
19951;SDS011;10137;49.406;19.484;2023-04-05T10:25:30;11.83;;;3.20;;
19951;SDS011;10137;49.406;19.484;2023-04-05T10:28:32;9.47;;;3.33;;
19951;SDS011;10137;49.406;19.484;2023-04-05T10:31:07;7.17;;;3.30;;
19951;SDS011;10137;49.406;19.484;2023-04-05T10:33:54;8.27;;;3.47;;
19951;SDS011;10137;49.406;19.484;2023-04-05T10:36:33;8.90;;;3.60;;
19951;SDS011;10137;49.406;19.484;2023-04-05T10:39:12;8.57;;;3.27;;
19951;SDS011;10137;49.406;19.484;2023-04-05T10:41:47;6.20;;;3.30;;
19951;SDS011;10137;49.406;19.484;2023-04-05T10:44:19;7.17;;;3.33;;
19951;SDS011;10137;49.406;19.484;2023-04-05T10:46:47;11.53;;;3.23;;
19951;SDS011;10137;49.406;19.484;2023-04-05T10:49:21;12.17;;;4.50;;
19951;SDS011;10137;49.406;19.484;2023-04-05T10:51:55;13.67;;;3.77;;
19951;SDS011;10137;49.406;19.484;2023-04-05T10:54:25;14.17;;;4.10;;
19951;SDS011;10137;49.406;19.484;2023-04-05T10:56:54;9.60;;;3.10;;
19951;SDS011;10137;49.406;19.484;2023-04-05T10:59:24;8.00;;;3.30;;
19951;SDS011;10137;49.406;19.484;2023-04-05T11:01:54;19.37;;;6.47;;
19951;SDS011;10137;49.406;19.484;2023-04-05T11:04:24;11.87;;;3.77;;
19951;SDS011;10137;49.406;19.484;2023-04-05T11:09:39;11.13;;;3.67;;
19951;SDS011;10137;49.406;19.484;2023-04-05T11:12:19;6.40;;;3.13;;
19951;SDS011;10137;49.406;19.484;2023-04-05T11:18:02;13.93;;;6.97;;
19951;SDS011;10137;49.406;19.484;2023-04-05T11:20:48;6.67;;;4.00;;
19951;SDS011;10137;49.406;19.484;2023-04-05T11:23:19;14.37;;;5.70;;
19951;SDS011;10137;49.406;19.484;2023-04-05T11:25:51;8.63;;;3.80;;
19951;SDS011;10137;49.406;19.484;2023-04-05T11:28:24;8.47;;;3.50;;
19951;SDS011;10137;49.406;19.484;2023-04-05T11:30:56;11.00;;;6.07;;
19951;SDS011;10137;49.406;19.484;2023-04-05T11:36:41;17.53;;;6.37;;
19951;SDS011;10137;49.406;19.484;2023-04-05T11:39:23;10.90;;;6.43;;
19951;SDS011;10137;49.406;19.484;2023-04-05T11:42:00;17.23;;;4.47;;
19951;SDS011;10137;49.406;19.484;2023-04-05T11:44:29;7.63;;;2.73;;
19951;SDS011;10137;49.406;19.484;2023-04-05T11:47:08;5.53;;;3.60;;
19951;SDS011;10137;49.406;19.484;2023-04-05T11:49:36;14.37;;;4.03;;
19951;SDS011;10137;49.406;19.484;2023-04-05T11:52:13;14.57;;;3.63;;
19951;SDS011;10137;49.406;19.484;2023-04-05T11:54:44;11.97;;;5.70;;
19951;SDS011;10137;49.406;19.484;2023-04-05T11:57:17;13.17;;;3.70;;
19951;SDS011;10137;49.406;19.484;2023-04-05T11:59:48;15.57;;;4.60;;
19951;SDS011;10137;49.406;19.484;2023-04-05T12:02:18;12.70;;;5.10;;
19951;SDS011;10137;49.406;19.484;2023-04-05T12:04:52;8.90;;;3.77;;
19951;SDS011;10137;49.406;19.484;2023-04-05T12:07:24;8.83;;;3.87;;
19951;SDS011;10137;49.406;19.484;2023-04-05T12:09:57;8.33;;;3.63;;
19951;SDS011;10137;49.406;19.484;2023-04-05T12:12:26;7.37;;;3.90;;
19951;SDS011;10137;49.406;19.484;2023-04-05T12:15:00;5.50;;;3.27;;
19951;SDS011;10137;49.406;19.484;2023-04-05T12:17:39;12.30;;;4.77;;
19951;SDS011;10137;49.406;19.484;2023-04-05T12:20:09;17.20;;;4.63;;
19951;SDS011;10137;49.406;19.484;2023-04-05T12:22:43;7.10;;;3.13;;
19951;SDS011;10137;49.406;19.484;2023-04-05T12:25:15;5.23;;;3.17;;
19951;SDS011;10137;49.406;19.484;2023-04-05T12:27:44;10.73;;;4.13;;
19951;SDS011;10137;49.406;19.484;2023-04-05T12:30:13;7.20;;;3.63;;
19951;SDS011;10137;49.406;19.484;2023-04-05T12:32:47;14.57;;;4.00;;
19951;SDS011;10137;49.406;19.484;2023-04-05T12:35:18;14.70;;;4.90;;
19951;SDS011;10137;49.406;19.484;2023-04-05T12:37:50;12.10;;;4.30;;
19951;SDS011;10137;49.406;19.484;2023-04-05T12:40:25;20.07;;;7.20;;
19951;SDS011;10137;49.406;19.484;2023-04-05T12:43:05;21.40;;;5.10;;
19951;SDS011;10137;49.406;19.484;2023-04-05T12:45:35;6.20;;;4.00;;
19951;SDS011;10137;49.406;19.484;2023-04-05T12:48:07;11.10;;;4.70;;
19951;SDS011;10137;49.406;19.484;2023-04-05T12:50:39;7.80;;;4.60;;
19951;SDS011;10137;49.406;19.484;2023-04-05T12:53:19;16.37;;;3.93;;
19951;SDS011;10137;49.406;19.484;2023-04-05T12:55:49;11.50;;;3.90;;
19951;SDS011;10137;49.406;19.484;2023-04-05T12:58:18;9.20;;;4.70;;
19951;SDS011;10137;49.406;19.484;2023-04-05T13:00:47;9.83;;;3.70;;
19951;SDS011;10137;49.406;19.484;2023-04-05T13:03:18;9.00;;;4.47;;
19951;SDS011;10137;49.406;19.484;2023-04-05T13:05:50;9.07;;;4.63;;
19951;SDS011;10137;49.406;19.484;2023-04-05T13:08:20;9.20;;;5.30;;
19951;SDS011;10137;49.406;19.484;2023-04-05T13:10:48;9.13;;;5.07;;
19951;SDS011;10137;49.406;19.484;2023-04-05T13:13:17;10.80;;;4.47;;
19951;SDS011;10137;49.406;19.484;2023-04-05T13:15:49;15.67;;;4.67;;
19951;SDS011;10137;49.406;19.484;2023-04-05T13:18:19;8.63;;;4.33;;
19951;SDS011;10137;49.406;19.484;2023-04-05T13:20:50;9.67;;;3.90;;
19951;SDS011;10137;49.406;19.484;2023-04-05T13:23:20;12.67;;;4.40;;
19951;SDS011;10137;49.406;19.484;2023-04-05T13:25:48;9.03;;;4.20;;
19951;SDS011;10137;49.406;19.484;2023-04-05T13:28:17;11.10;;;4.53;;
19951;SDS011;10137;49.406;19.484;2023-04-05T13:30:47;16.83;;;4.47;;
19951;SDS011;10137;49.406;19.484;2023-04-05T13:33:17;9.10;;;3.90;;
19951;SDS011;10137;49.406;19.484;2023-04-05T13:35:45;17.23;;;5.80;;
19951;SDS011;10137;49.406;19.484;2023-04-05T13:38:14;10.07;;;4.90;;
19951;SDS011;10137;49.406;19.484;2023-04-05T13:40:48;8.97;;;4.60;;
19951;SDS011;10137;49.406;19.484;2023-04-05T13:43:16;9.93;;;4.63;;
19951;SDS011;10137;49.406;19.484;2023-04-05T13:45:44;12.87;;;5.63;;
19951;SDS011;10137;49.406;19.484;2023-04-05T13:48:13;7.73;;;4.53;;
19951;SDS011;10137;49.406;19.484;2023-04-05T13:50:42;10.73;;;5.03;;
19951;SDS011;10137;49.406;19.484;2023-04-05T13:53:10;10.57;;;5.23;;
19951;SDS011;10137;49.406;19.484;2023-04-05T13:55:38;16.77;;;5.23;;
19951;SDS011;10137;49.406;19.484;2023-04-05T13:58:08;8.17;;;4.30;;
19951;SDS011;10137;49.406;19.484;2023-04-05T14:00:36;8.23;;;4.97;;
19951;SDS011;10137;49.406;19.484;2023-04-05T14:03:05;14.27;;;4.23;;
19951;SDS011;10137;49.406;19.484;2023-04-05T14:05:33;11.97;;;6.50;;
19951;SDS011;10137;49.406;19.484;2023-04-05T14:08:02;9.83;;;5.73;;
19951;SDS011;10137;49.406;19.484;2023-04-05T14:10:30;12.77;;;4.70;;
19951;SDS011;10137;49.406;19.484;2023-04-05T14:12:59;11.50;;;5.93;;
19951;SDS011;10137;49.406;19.484;2023-04-05T14:15:29;16.73;;;5.97;;
19951;SDS011;10137;49.406;19.484;2023-04-05T14:17:58;12.67;;;5.33;;
19951;SDS011;10137;49.406;19.484;2023-04-05T14:20:26;16.00;;;5.50;;
19951;SDS011;10137;49.406;19.484;2023-04-05T14:22:53;9.60;;;5.40;;
19951;SDS011;10137;49.406;19.484;2023-04-05T14:25:22;15.60;;;7.50;;
19951;SDS011;10137;49.406;19.484;2023-04-05T14:27:50;12.40;;;4.67;;
19951;SDS011;10137;49.406;19.484;2023-04-05T14:30:18;11.10;;;5.90;;
19951;SDS011;10137;49.406;19.484;2023-04-05T14:32:48;15.17;;;6.73;;
19951;SDS011;10137;49.406;19.484;2023-04-05T14:35:17;16.17;;;6.57;;
19951;SDS011;10137;49.406;19.484;2023-04-05T14:37:45;19.47;;;7.67;;
19951;SDS011;10137;49.406;19.484;2023-04-05T14:40:13;18.43;;;7.20;;
19951;SDS011;10137;49.406;19.484;2023-04-05T14:42:42;15.57;;;6.50;;
19951;SDS011;10137;49.406;19.484;2023-04-05T14:45:10;20.07;;;6.17;;
19951;SDS011;10137;49.406;19.484;2023-04-05T14:47:38;12.17;;;6.30;;
19951;SDS011;10137;49.406;19.484;2023-04-05T14:50:09;13.90;;;6.30;;
19951;SDS011;10137;49.406;19.484;2023-04-05T14:52:37;11.10;;;6.60;;